Time;durP1;ratioP1;P1;durP2;ratioP2;P2;SDS_P1;SDS_P2;PMS_P1;PMS_P2;Temp;Humidity;BMP_temperature;BMP_pressure;BME280_temperature;BME280_humidity;BME280_pressure;Samples;Min_cycle;Max_cycle;Signal;HPM_P1;HPM_P2
2023/02/26 00:00:26;;;;;;;6.90;2.97;;;;;;;;;;5037211;28;20021;-84
2023/02/26 00:02:52;;;;;;;5.28;2.50;;;;;;;;;;5055040;28;20060;-84
2023/02/26 00:05:18;;;;;;;5.85;2.97;;;;;;;;;;5056983;28;20021;-84
2023/02/26 00:07:44;;;;;;;4.75;2.65;;;;;;;;;;5061152;28;20036;-83
2023/02/26 00:10:15;;;;;;;5.50;2.60;;;;;;;;;;5057090;28;20061;-84
2023/02/26 00:12:41;;;;;;;4.55;2.10;;;;;;;;;;5065204;28;20558;-81
2023/02/26 00:15:11;;;;;;;5.18;2.20;;;;;;;;;;5051713;28;20021;-81
2023/02/26 00:17:48;;;;;;;4.28;2.40;;;;;;;;;;5039174;28;20013;-84
2023/02/26 00:20:15;;;;;;;6.35;2.78;;;;;;;;;;5044619;28;20526;-84
2023/02/26 00:22:42;;;;;;;6.03;2.35;;;;;;;;;;5033150;28;20031;-84
2023/02/26 00:25:08;;;;;;;5.03;2.40;;;;;;;;;;5030043;28;20028;-84
2023/02/26 00:27:35;;;;;;;5.97;2.88;;;;;;;;;;5042846;28;20037;-83
2023/02/26 00:30:01;;;;;;;6.30;3.25;;;;;;;;;;5040451;28;20033;-84
2023/02/26 00:32:27;;;;;;;4.85;2.38;;;;;;;;;;5054740;28;20025;-84
2023/02/26 00:34:53;;;;;;;5.90;2.80;;;;;;;;;;5053470;28;20074;-84
2023/02/26 00:37:26;;;;;;;6.38;2.50;;;;;;;;;;5029075;28;20104;-83
2023/02/26 00:40:00;;;;;;;5.55;2.80;;;;;;;;;;5050349;28;20018;-83
2023/02/26 00:42:27;;;;;;;5.63;2.65;;;;;;;;;;5056979;28;20071;-83
2023/02/26 00:44:53;;;;;;;5.47;2.40;;;;;;;;;;5046004;28;20021;-84
2023/02/26 00:47:22;;;;;;;5.45;2.90;;;;;;;;;;5054192;28;20044;-83
2023/02/26 00:49:48;;;;;;;5.45;2.30;;;;;;;;;;5028010;28;20037;-83
2023/02/26 00:52:17;;;;;;;6.68;3.00;;;;;;;;;;5036456;28;20383;-84
2023/02/26 00:54:43;;;;;;;4.90;2.47;;;;;;;;;;5069251;28;20075;-83
2023/02/26 00:57:09;;;;;;;5.88;2.78;;;;;;;;;;5054068;28;20021;-84
2023/02/26 00:59:35;;;;;;;5.05;2.67;;;;;;;;;;5055614;28;20428;-82
2023/02/26 01:02:01;;;;;;;5.10;2.72;;;;;;;;;;5054014;28;20044;-83
2023/02/26 01:04:27;;;;;;;5.28;2.45;;;;;;;;;;5042199;28;20055;-84
2023/02/26 01:06:54;;;;;;;5.43;2.22;;;;;;;;;;5044450;28;20082;-83
2023/02/26 01:09:25;;;;;;;5.40;2.75;;;;;;;;;;5041953;28;20025;-83
2023/02/26 01:11:53;;;;;;;6.13;2.47;;;;;;;;;;5038998;28;20071;-83
2023/02/26 01:14:19;;;;;;;4.63;2.20;;;;;;;;;;5037741;28;20093;-80
2023/02/26 01:17:11;;;;;;;6.45;2.65;;;;;;;;;;5059263;28;20025;-84
2023/02/26 01:19:56;;;;;;;5.95;2.95;;;;;;;;;;5059235;28;20045;-83
2023/02/26 01:22:28;;;;;;;5.88;2.28;;;;;;;;;;5059948;28;20036;-84
2023/02/26 01:25:03;;;;;;;4.70;2.33;;;;;;;;;;5060916;28;20024;-82
2023/02/26 01:27:30;;;;;;;6.28;2.80;;;;;;;;;;5053812;28;20028;-84
2023/02/26 01:29:56;;;;;;;6.82;2.70;;;;;;;;;;5052793;28;20491;-83
2023/02/26 01:32:31;;;;;;;6.82;3.30;;;;;;;;;;5033313;28;20021;-83
2023/02/26 01:35:20;;;;;;;5.30;2.30;;;;;;;;;;5039670;28;20021;-81
2023/02/26 01:37:59;;;;;;;7.22;2.95;;;;;;;;;;5039398;28;20491;-84
2023/02/26 01:40:40;;;;;;;6.45;2.97;;;;;;;;;;5041615;28;20095;-83
2023/02/26 01:43:10;;;;;;;6.05;2.20;;;;;;;;;;5043570;28;20121;-83
2023/02/26 01:45:42;;;;;;;5.55;2.83;;;;;;;;;;5043729;28;20477;-83
2023/02/26 01:48:18;;;;;;;5.28;2.63;;;;;;;;;;5038933;28;20044;-83
2023/02/26 01:50:44;;;;;;;5.30;2.50;;;;;;;;;;5048657;28;20445;-83
2023/02/26 01:53:24;;;;;;;5.15;2.50;;;;;;;;;;5047697;28;20021;-83
2023/02/26 01:55:52;;;;;;;5.35;2.63;;;;;;;;;;5049078;28;20013;-83
2023/02/26 01:58:19;;;;;;;4.78;2.22;;;;;;;;;;5067662;28;20039;-84
2023/02/26 02:00:45;;;;;;;5.55;3.13;;;;;;;;;;5052966;28;20048;-83
2023/02/26 02:03:11;;;;;;;4.32;2.20;;;;;;;;;;5064080;28;20009;-83
2023/02/26 02:05:50;;;;;;;5.13;2.38;;;;;;;;;;5026461;28;20029;-82
2023/02/26 02:08:16;;;;;;;4.57;2.30;;;;;;;;;;5040944;28;20151;-83
2023/02/26 02:10:47;;;;;;;4.38;2.33;;;;;;;;;;5043921;28;20057;-82
2023/02/26 02:13:36;;;;;;;5.57;2.67;;;;;;;;;;5051999;28;20029;-81
2023/02/26 02:16:14;;;;;;;4.75;2.20;;;;;;;;;;5031922;28;20040;-83
2023/02/26 02:18:43;;;;;;;4.82;2.10;;;;;;;;;;5044875;28;20036;-83
2023/02/26 02:21:20;;;;;;;5.22;2.20;;;;;;;;;;5038136;28;20020;-82
2023/02/26 02:23:49;;;;;;;4.43;2.17;;;;;;;;;;5028474;28;20033;-83
2023/02/26 02:26:15;;;;;;;5.03;2.20;;;;;;;;;;5036240;28;20395;-82
2023/02/26 02:29:00;;;;;;;5.15;2.92;;;;;;;;;;5034779;28;20021;-82
2023/02/26 02:31:26;;;;;;;5.30;2.40;;;;;;;;;;5018540;28;20025;-82
2023/02/26 02:33:58;;;;;;;5.07;2.50;;;;;;;;;;5048377;28;20324;-82
2023/02/26 02:36:28;;;;;;;5.07;2.20;;;;;;;;;;5038259;28;20040;-81
2023/02/26 02:38:56;;;;;;;4.93;2.53;;;;;;;;;;5046845;28;20025;-81
2023/02/26 02:41:28;;;;;;;3.90;1.45;;;;;;;;;;5035473;28;20547;-82
2023/02/26 02:43:54;;;;;;;5.10;2.40;;;;;;;;;;5063236;28;20450;-81
2023/02/26 02:46:25;;;;;;;4.55;2.10;;;;;;;;;;5055025;28;20056;-82
2023/02/26 02:49:27;;;;;;;5.38;2.75;;;;;;;;;;5036104;28;20100;-82
2023/02/26 02:51:59;;;;;;;5.60;2.50;;;;;;;;;;4953948;28;20035;-82
2023/02/26 02:54:28;;;;;;;4.93;2.50;;;;;;;;;;4960072;28;20057;-82
2023/02/26 02:56:58;;;;;;;4.75;1.85;;;;;;;;;;4960557;28;20058;-82
2023/02/26 02:59:51;;;;;;;4.78;2.42;;;;;;;;;;4957411;28;20066;-82
2023/02/26 03:02:16;;;;;;;4.55;2.30;;;;;;;;;;4971528;28;20595;-82
2023/02/26 03:04:43;;;;;;;4.53;2.08;;;;;;;;;;4965875;28;20035;-81
2023/02/26 03:07:09;;;;;;;5.40;2.05;;;;;;;;;;4956723;28;20540;-82
2023/02/26 03:09:35;;;;;;;4.15;2.15;;;;;;;;;;4973052;28;20060;-81
2023/02/26 03:12:01;;;;;;;5.55;2.60;;;;;;;;;;4986067;28;20034;-82
2023/02/26 03:14:29;;;;;;;5.22;2.10;;;;;;;;;;4959665;28;20046;-82
2023/02/26 03:17:01;;;;;;;5.70;2.30;;;;;;;;;;4959767;28;20748;-82
2023/02/26 03:19:29;;;;;;;4.43;1.88;;;;;;;;;;4957640;28;20031;-80
2023/02/26 03:22:08;;;;;;;6.32;2.53;;;;;;;;;;4949889;28;20031;-82
2023/02/26 03:24:40;;;;;;;4.75;2.08;;;;;;;;;;4958883;28;20067;-82
2023/02/26 03:27:26;;;;;;;4.35;2.00;;;;;;;;;;5046563;28;20025;-82
2023/02/26 03:29:52;;;;;;;5.00;2.15;;;;;;;;;;5072843;28;20498;-81
2023/02/26 03:32:29;;;;;;;5.05;2.40;;;;;;;;;;5044408;28;20028;-82
2023/02/26 03:34:59;;;;;;;5.25;2.35;;;;;;;;;;5016536;28;20053;-82
2023/02/26 03:37:52;;;;;;;5.40;2.28;;;;;;;;;;5052101;28;20028;-82
2023/02/26 03:40:21;;;;;;;5.68;2.10;;;;;;;;;;5039050;28;20040;-83
2023/02/26 03:42:53;;;;;;;4.75;1.98;;;;;;;;;;5045820;28;20040;-82
2023/02/26 03:45:21;;;;;;;4.97;2.45;;;;;;;;;;5053111;28;20013;-82
2023/02/26 03:47:52;;;;;;;4.43;2.03;;;;;;;;;;5028001;28;20056;-82
2023/02/26 03:50:31;;;;;;;5.65;2.65;;;;;;;;;;5073597;28;20031;-82
2023/02/26 03:52:59;;;;;;;4.78;2.10;;;;;;;;;;5048070;28;20115;-82
2023/02/26 03:55:37;;;;;;;5.25;2.30;;;;;;;;;;5071968;28;20016;-83
2023/02/26 03:58:04;;;;;;;4.97;2.15;;;;;;;;;;5041179;28;20027;-81
2023/02/26 04:00:31;;;;;;;5.57;2.20;;;;;;;;;;5051729;28;20031;-82
2023/02/26 04:03:17;;;;;;;5.90;1.88;;;;;;;;;;5034065;28;20128;-82
2023/02/26 04:05:47;;;;;;;5.80;2.40;;;;;;;;;;5028218;28;20544;-82
2023/02/26 04:08:13;;;;;;;4.63;2.10;;;;;;;;;;5071979;28;20032;-82
2023/02/26 04:10:44;;;;;;;4.47;2.22;;;;;;;;;;5038842;28;20029;-82
2023/02/26 04:13:10;;;;;;;5.10;2.20;;;;;;;;;;5056174;28;20032;-82
2023/02/26 04:15:36;;;;;;;5.80;2.70;;;;;;;;;;5027702;28;20505;-82
2023/02/26 04:18:02;;;;;;;4.72;2.22;;;;;;;;;;5048057;28;20528;-82
2023/02/26 04:20:28;;;;;;;5.93;2.40;;;;;;;;;;5053541;28;20037;-82
2023/02/26 04:22:54;;;;;;;5.28;2.47;;;;;;;;;;5049187;28;20034;-82
2023/02/26 04:25:23;;;;;;;6.30;2.55;;;;;;;;;;5019206;28;20033;-82
2023/02/26 04:27:49;;;;;;;5.13;2.70;;;;;;;;;;5043659;28;20087;-83
2023/02/26 04:30:15;;;;;;;5.38;2.45;;;;;;;;;;5072255;28;20020;-83
2023/02/26 04:32:41;;;;;;;5.75;2.60;;;;;;;;;;5037832;28;20082;-80
2023/02/26 04:35:08;;;;;;;5.43;2.22;;;;;;;;;;5067913;28;20036;-81
2023/02/26 04:37:34;;;;;;;6.13;2.45;;;;;;;;;;5075335;28;20060;-83
2023/02/26 04:40:00;;;;;;;6.47;2.45;;;;;;;;;;5053953;28;20032;-82
2023/02/26 04:42:26;;;;;;;5.18;2.60;;;;;;;;;;5034938;28;20032;-82
2023/02/26 04:44:52;;;;;;;5.43;2.53;;;;;;;;;;5051362;28;20115;-82
2023/02/26 04:47:18;;;;;;;5.50;2.42;;;;;;;;;;5037253;28;20187;-81
2023/02/26 04:49:44;;;;;;;6.65;2.63;;;;;;;;;;5035353;28;20130;-82
2023/02/26 04:52:10;;;;;;;6.03;2.50;;;;;;;;;;5044343;28;20017;-82
2023/02/26 04:54:36;;;;;;;6.13;2.55;;;;;;;;;;5073541;28;20029;-82
2023/02/26 04:57:03;;;;;;;5.47;2.63;;;;;;;;;;5036726;28;20029;-82
2023/02/26 04:59:29;;;;;;;5.57;2.50;;;;;;;;;;5036389;28;20022;-81
2023/02/26 05:01:55;;;;;;;5.22;2.53;;;;;;;;;;5043696;28;20173;-81
2023/02/26 05:04:21;;;;;;;5.40;2.15;;;;;;;;;;5046100;28;20367;-83
2023/02/26 05:06:47;;;;;;;7.25;2.95;;;;;;;;;;5037427;28;20029;-82
2023/02/26 05:09:13;;;;;;;6.40;2.35;;;;;;;;;;5037929;28;20434;-81
2023/02/26 05:11:39;;;;;;;6.40;3.03;;;;;;;;;;5037352;28;20021;-83
2023/02/26 05:14:04;;;;;;;6.53;2.45;;;;;;;;;;5039613;28;20510;-83
2023/02/26 05:16:30;;;;;;;6.45;2.60;;;;;;;;;;5056326;28;20017;-83
2023/02/26 05:18:56;;;;;;;6.38;3.05;;;;;;;;;;5038318;28;20039;-83
2023/02/26 05:21:22;;;;;;;5.40;2.35;;;;;;;;;;5052654;28;20198;-83
2023/02/26 05:23:48;;;;;;;5.95;2.53;;;;;;;;;;5025057;28;20463;-83
2023/02/26 05:26:15;;;;;;;5.95;2.83;;;;;;;;;;5054080;28;20084;-81
2023/02/26 05:28:44;;;;;;;5.95;2.65;;;;;;;;;;5036330;28;20021;-82
2023/02/26 05:31:10;;;;;;;6.75;3.03;;;;;;;;;;5045607;28;20124;-82
2023/02/26 05:33:36;;;;;;;5.82;2.72;;;;;;;;;;5054403;28;20025;-83
2023/02/26 05:36:02;;;;;;;6.15;2.42;;;;;;;;;;5055802;28;20025;-82
2023/02/26 05:38:28;;;;;;;6.22;2.65;;;;;;;;;;5036478;28;20036;-83
2023/02/26 05:40:56;;;;;;;8.75;3.83;;;;;;;;;;5037802;28;20033;-83
2023/02/26 05:43:22;;;;;;;5.82;2.72;;;;;;;;;;5038153;28;20021;-82
2023/02/26 05:45:49;;;;;;;6.25;3.10;;;;;;;;;;5059408;28;20022;-83
2023/02/26 05:48:15;;;;;;;7.28;3.40;;;;;;;;;;5047405;28;20025;-82
2023/02/26 05:50:41;;;;;;;7.57;3.17;;;;;;;;;;5023567;28;20249;-83
2023/02/26 05:53:07;;;;;;;6.20;2.83;;;;;;;;;;5046895;28;20438;-81
2023/02/26 05:55:33;;;;;;;5.63;3.10;;;;;;;;;;5028901;28;20028;-82
2023/02/26 05:58:00;;;;;;;7.25;3.55;;;;;;;;;;5054770;28;20505;-83
2023/02/26 06:00:26;;;;;;;6.70;2.83;;;;;;;;;;5038130;28;20033;-83
2023/02/26 06:02:52;;;;;;;7.25;2.78;;;;;;;;;;5049585;28;20437;-81
2023/02/26 06:05:18;;;;;;;7.25;3.58;;;;;;;;;;5058332;28;20032;-81
2023/02/26 06:07:44;;;;;;;7.53;3.20;;;;;;;;;;5066611;28;20478;-82
2023/02/26 06:10:10;;;;;;;7.50;3.10;;;;;;;;;;5040454;28;20033;-82
2023/02/26 06:12:37;;;;;;;6.82;2.88;;;;;;;;;;5053048;28;20079;-82
2023/02/26 06:15:03;;;;;;;8.85;3.75;;;;;;;;;;5037172;28;20036;-82
2023/02/26 06:17:29;;;;;;;7.00;3.03;;;;;;;;;;5048047;28;20075;-82
2023/02/26 06:19:56;;;;;;;6.38;2.95;;;;;;;;;;5038728;28;20025;-83
2023/02/26 06:22:22;;;;;;;6.50;3.10;;;;;;;;;;5063785;28;20028;-83
2023/02/26 06:24:48;;;;;;;5.13;2.50;;;;;;;;;;5063788;28;20029;-82
2023/02/26 06:27:14;;;;;;;7.75;3.05;;;;;;;;;;5033083;28;20088;-81
2023/02/26 06:29:41;;;;;;;7.82;2.90;;;;;;;;;;5029875;28;20032;-82
2023/02/26 06:32:07;;;;;;;6.82;3.33;;;;;;;;;;5022701;28;20052;-81
2023/02/26 06:34:33;;;;;;;6.45;2.70;;;;;;;;;;5027354;28;20112;-81
2023/02/26 06:36:59;;;;;;;6.90;2.75;;;;;;;;;;5040137;28;20581;-82
2023/02/26 06:39:25;;;;;;;7.03;2.42;;;;;;;;;;5041474;28;20060;-80
2023/02/26 06:41:51;;;;;;;7.30;3.15;;;;;;;;;;5063250;28;20505;-82
2023/02/26 06:44:17;;;;;;;8.05;3.55;;;;;;;;;;5043566;28;20056;-81
2023/02/26 06:46:43;;;;;;;6.30;2.80;;;;;;;;;;5053920;28;20052;-80
2023/02/26 06:49:10;;;;;;;5.55;2.42;;;;;;;;;;5061598;28;20029;-84
2023/02/26 06:51:36;;;;;;;6.22;3.03;;;;;;;;;;5046403;28;20124;-82
2023/02/26 06:54:02;;;;;;;6.18;2.83;;;;;;;;;;5030718;28;20106;-81
2023/02/26 06:56:28;;;;;;;5.85;3.05;;;;;;;;;;5038586;28;20013;-81
2023/02/26 06:58:54;;;;;;;6.03;2.70;;;;;;;;;;5040473;28;20020;-82
2023/02/26 07:01:20;;;;;;;6.13;2.95;;;;;;;;;;5029033;28;20494;-82
2023/02/26 07:03:46;;;;;;;7.15;2.95;;;;;;;;;;5039355;28;20033;-81
2023/02/26 07:06:12;;;;;;;6.97;3.40;;;;;;;;;;5057704;28;20079;-80
2023/02/26 07:08:38;;;;;;;4.85;2.38;;;;;;;;;;5037898;28;20021;-83
2023/02/26 07:11:04;;;;;;;8.63;3.17;;;;;;;;;;5057237;28;20021;-82
2023/02/26 07:13:30;;;;;;;6.45;2.55;;;;;;;;;;5031735;28;20029;-82
2023/02/26 07:15:58;;;;;;;7.40;2.60;;;;;;;;;;5040096;28;20049;-82
2023/02/26 07:18:24;;;;;;;8.60;3.35;;;;;;;;;;5038564;28;20017;-80
2023/02/26 07:20:50;;;;;;;9.77;4.53;;;;;;;;;;5034740;28;20113;-82
2023/02/26 07:23:16;;;;;;;8.48;3.67;;;;;;;;;;5048676;28;20041;-82
2023/02/26 07:25:42;;;;;;;7.65;3.65;;;;;;;;;;5032669;28;20348;-82
2023/02/26 07:28:08;;;;;;;9.32;4.20;;;;;;;;;;5060708;28;20028;-83
2023/02/26 07:30:34;;;;;;;9.90;4.20;;;;;;;;;;5041473;28;20061;-83
2023/02/26 07:33:00;;;;;;;8.45;4.18;;;;;;;;;;5046221;28;20054;-82
2023/02/26 07:35:26;;;;;;;8.18;3.72;;;;;;;;;;5038669;28;20115;-82
2023/02/26 07:37:52;;;;;;;7.38;3.70;;;;;;;;;;5032199;28;20021;-81
2023/02/26 07:40:18;;;;;;;8.10;3.33;;;;;;;;;;5045014;28;20033;-82
2023/02/26 07:42:44;;;;;;;7.00;3.30;;;;;;;;;;5036663;28;20029;-82
2023/02/26 07:45:11;;;;;;;6.40;3.28;;;;;;;;;;5036052;28;20017;-83
2023/02/26 07:47:37;;;;;;;6.05;2.83;;;;;;;;;;5038476;28;20137;-82
2023/02/26 07:50:04;;;;;;;7.03;2.83;;;;;;;;;;5046002;28;20052;-82
2023/02/26 07:52:30;;;;;;;6.95;3.13;;;;;;;;;;5022858;28;20136;-82
2023/02/26 07:54:56;;;;;;;8.18;2.80;;;;;;;;;;5052852;28;20047;-82
2023/02/26 07:57:22;;;;;;;5.80;2.80;;;;;;;;;;5049071;28;20749;-82
2023/02/26 07:59:48;;;;;;;6.50;3.10;;;;;;;;;;5035943;28;20059;-82
2023/02/26 08:02:14;;;;;;;5.88;2.78;;;;;;;;;;5055170;28;20079;-82
2023/02/26 08:04:41;;;;;;;5.40;2.30;;;;;;;;;;5058739;28;20058;-82
2023/02/26 08:07:07;;;;;;;4.85;2.47;;;;;;;;;;5063791;28;20017;-81
2023/02/26 08:09:33;;;;;;;4.55;2.47;;;;;;;;;;5024460;28;20036;-83
2023/02/26 08:11:59;;;;;;;4.63;2.33;;;;;;;;;;5043704;28;20029;-82
2023/02/26 08:14:25;;;;;;;6.07;2.50;;;;;;;;;;5063397;28;20033;-83
2023/02/26 08:16:52;;;;;;;6.38;2.58;;;;;;;;;;5045791;28;20031;-81
2023/02/26 08:19:18;;;;;;;5.15;2.03;;;;;;;;;;5040820;28;20051;-82
2023/02/26 08:21:44;;;;;;;4.38;2.22;;;;;;;;;;5048004;28;20104;-80
2023/02/26 08:24:11;;;;;;;4.25;1.95;;;;;;;;;;5056459;28;20048;-82
2023/02/26 08:26:37;;;;;;;3.67;2.10;;;;;;;;;;5042474;28;20067;-83
2023/02/26 08:29:04;;;;;;;4.85;2.08;;;;;;;;;;5041609;28;20036;-83
2023/02/26 08:31:30;;;;;;;4.90;2.10;;;;;;;;;;5038003;28;20036;-82
2023/02/26 08:33:57;;;;;;;4.07;1.70;;;;;;;;;;5024399;28;20026;-85
2023/02/26 08:39:27;;;;;;;4.22;1.85;;;;;;;;;;5045058;28;20380;-83
2023/02/26 08:41:53;;;;;;;5.80;1.58;;;;;;;;;;5027299;28;20026;-81
2023/02/26 08:44:19;;;;;;;5.15;2.17;;;;;;;;;;5057395;28;20033;-80
2023/02/26 08:46:45;;;;;;;6.38;2.00;;;;;;;;;;5040233;28;20049;-82
2023/02/26 08:49:11;;;;;;;4.72;2.00;;;;;;;;;;5056282;28;20029;-81
2023/02/26 08:51:37;;;;;;;4.57;1.73;;;;;;;;;;5034750;28;20056;-80
2023/02/26 08:54:03;;;;;;;3.80;1.65;;;;;;;;;;5054621;28;20035;-81
2023/02/26 08:56:30;;;;;;;4.05;1.73;;;;;;;;;;5058717;28;20025;-80
2023/02/26 08:58:56;;;;;;;4.03;1.88;;;;;;;;;;5044351;28;20479;-83
2023/02/26 09:01:22;;;;;;;4.78;1.90;;;;;;;;;;5053040;28;20177;-82
2023/02/26 09:03:48;;;;;;;4.13;1.75;;;;;;;;;;5057200;28;20039;-82
2023/02/26 09:06:14;;;;;;;4.28;2.13;;;;;;;;;;5056759;28;20029;-82
2023/02/26 09:08:40;;;;;;;4.70;1.75;;;;;;;;;;5056833;28;20033;-81
2023/02/26 09:11:06;;;;;;;3.72;1.45;;;;;;;;;;5036301;28;20053;-80
2023/02/26 09:13:32;;;;;;;3.83;1.98;;;;;;;;;;5027196;28;20437;-83
2023/02/26 09:15:58;;;;;;;5.93;1.88;;;;;;;;;;5057667;28;20032;-82
2023/02/26 09:18:24;;;;;;;3.75;1.35;;;;;;;;;;5033942;28;21121;-83
2023/02/26 09:20:50;;;;;;;3.47;1.48;;;;;;;;;;5047535;28;20040;-79
2023/02/26 09:23:16;;;;;;;4.53;1.60;;;;;;;;;;5061563;28;20029;-83
2023/02/26 09:25:42;;;;;;;3.80;1.63;;;;;;;;;;5057359;28;20033;-82
2023/02/26 09:28:08;;;;;;;4.53;1.65;;;;;;;;;;5056350;28;20056;-81
2023/02/26 09:30:34;;;;;;;4.25;1.63;;;;;;;;;;5046272;28;20159;-82
2023/02/26 09:33:00;;;;;;;4.50;2.00;;;;;;;;;;5056291;28;20088;-81
2023/02/26 09:35:26;;;;;;;4.57;1.60;;;;;;;;;;5056925;28;20047;-82
2023/02/26 09:37:52;;;;;;;4.03;1.60;;;;;;;;;;5052385;28;20026;-81
2023/02/26 09:40:23;;;;;;;4.00;1.52;;;;;;;;;;5052321;28;20079;-82
2023/02/26 09:42:49;;;;;;;4.72;1.65;;;;;;;;;;5059376;28;20029;-81
2023/02/26 09:45:30;;;;;;;2.95;1.25;;;;;;;;;;5055556;28;20029;-81
2023/02/26 09:47:58;;;;;;;3.78;1.70;;;;;;;;;;5025283;28;20077;-81
2023/02/26 09:50:27;;;;;;;3.55;1.45;;;;;;;;;;5061264;28;20028;-82
2023/02/26 09:53:12;;;;;;;5.00;1.40;;;;;;;;;;5049672;28;20070;-82
2023/02/26 09:55:42;;;;;;;3.53;1.25;;;;;;;;;;5067984;28;20043;-83
2023/02/26 09:58:21;;;;;;;4.05;1.50;;;;;;;;;;5043799;28;20032;-84
2023/02/26 10:00:52;;;;;;;2.83;1.02;;;;;;;;;;5058656;28;20055;-81
2023/02/26 10:03:26;;;;;;;3.92;1.30;;;;;;;;;;5045841;28;20024;-83
2023/02/26 10:06:01;;;;;;;4.95;1.40;;;;;;;;;;5038275;28;20029;-80
2023/02/26 10:08:32;;;;;;;3.05;1.30;;;;;;;;;;5056533;28;20028;-82
2023/02/26 10:11:03;;;;;;;3.13;1.30;;;;;;;;;;5058246;28;20081;-82
2023/02/26 10:13:35;;;;;;;3.92;1.33;;;;;;;;;;5066028;28;20060;-82
2023/02/26 10:16:05;;;;;;;4.43;1.30;;;;;;;;;;5048521;28;20041;-82
2023/02/26 10:18:33;;;;;;;3.72;1.42;;;;;;;;;;5037809;28;20028;-82
2023/02/26 10:21:02;;;;;;;3.92;1.75;;;;;;;;;;5044721;28;20029;-82
2023/02/26 10:23:28;;;;;;;3.58;1.40;;;;;;;;;;5058477;28;20025;-84
2023/02/26 10:26:03;;;;;;;3.17;1.35;;;;;;;;;;5062960;28;20089;-82
2023/02/26 10:28:33;;;;;;;2.80;1.08;;;;;;;;;;5057922;28;20108;-84
2023/02/26 10:31:05;;;;;;;3.65;1.45;;;;;;;;;;5062815;28;20048;-83
2023/02/26 10:33:34;;;;;;;4.38;1.50;;;;;;;;;;5032593;28;20027;-81
2023/02/26 10:36:20;;;;;;;3.47;1.25;;;;;;;;;;5043352;28;20127;-83
2023/02/26 10:38:48;;;;;;;3.10;1.40;;;;;;;;;;5015028;28;20034;-83
2023/02/26 10:41:17;;;;;;;3.65;1.33;;;;;;;;;;5043198;28;20021;-84
2023/02/26 10:43:48;;;;;;;2.70;1.13;;;;;;;;;;5060053;28;20509;-85
2023/02/26 10:46:16;;;;;;;3.28;1.40;;;;;;;;;;5057049;28;20048;-84
2023/02/26 10:49:01;;;;;;;2.97;1.48;;;;;;;;;;5057213;28;20025;-83
2023/02/26 10:51:37;;;;;;;3.80;1.70;;;;;;;;;;5038720;28;20029;-81
2023/02/26 10:54:09;;;;;;;2.53;1.02;;;;;;;;;;5050906;28;20049;-81
2023/02/26 10:56:35;;;;;;;3.67;1.67;;;;;;;;;;5038710;28;20025;-82
2023/02/26 10:59:01;;;;;;;5.18;1.42;;;;;;;;;;5031706;28;20024;-82
2023/02/26 11:01:28;;;;;;;5.00;1.70;;;;;;;;;;5061753;28;20047;-83
2023/02/26 11:03:55;;;;;;;2.80;1.15;;;;;;;;;;5056041;28;20024;-83
2023/02/26 11:06:24;;;;;;;3.28;1.48;;;;;;;;;;5054776;28;20104;-83
2023/02/26 11:08:54;;;;;;;3.58;1.45;;;;;;;;;;5028602;28;20036;-84
2023/02/26 11:11:39;;;;;;;3.28;1.20;;;;;;;;;;5055496;28;20506;-84
2023/02/26 11:14:05;;;;;;;2.78;1.17;;;;;;;;;;5039198;28;20022;-84
2023/02/26 11:16:31;;;;;;;3.97;1.40;;;;;;;;;;5028137;28;20094;-84
2023/02/26 11:18:58;;;;;;;3.78;1.50;;;;;;;;;;5063051;28;20024;-87
2023/02/26 11:21:26;;;;;;;4.28;1.63;;;;;;;;;;5048492;28;20040;-83
2023/02/26 11:23:57;;;;;;;5.93;2.05;;;;;;;;;;5062097;28;20033;-83
2023/02/26 11:26:26;;;;;;;4.68;1.77;;;;;;;;;;5049834;28;20056;-83
2023/02/26 11:28:58;;;;;;;5.47;2.55;;;;;;;;;;5054444;28;20032;-83
2023/02/26 11:31:25;;;;;;;5.22;2.03;;;;;;;;;;5033099;28;20040;-83
2023/02/26 11:33:55;;;;;;;4.82;1.77;;;;;;;;;;5060834;28;20082;-85
2023/02/26 11:36:23;;;;;;;5.07;2.28;;;;;;;;;;5056071;28;20028;-82
2023/02/26 11:38:57;;;;;;;2.70;1.10;;;;;;;;;;5053553;28;20063;-84
2023/02/26 11:41:23;;;;;;;4.35;1.33;;;;;;;;;;5038628;28;20016;-83
2023/02/26 11:43:56;;;;;;;4.40;1.60;;;;;;;;;;5030758;28;20052;-85
2023/02/26 11:46:24;;;;;;;4.63;1.52;;;;;;;;;;5042917;28;20511;-83
2023/02/26 11:48:53;;;;;;;3.63;1.95;;;;;;;;;;5050496;28;20451;-81
2023/02/26 11:51:20;;;;;;;4.25;1.58;;;;;;;;;;5045949;28;20029;-80
2023/02/26 11:53:51;;;;;;;3.28;1.50;;;;;;;;;;5049246;28;20035;-85
2023/02/26 11:56:24;;;;;;;3.22;1.30;;;;;;;;;;5059488;28;20075;-81
2023/02/26 11:58:52;;;;;;;3.00;1.30;;;;;;;;;;5059331;28;20952;-83
2023/02/26 12:01:18;;;;;;;2.67;1.23;;;;;;;;;;5058660;28;20044;-85
2023/02/26 12:03:46;;;;;;;3.97;1.30;;;;;;;;;;5069287;28;20032;-84
2023/02/26 12:06:17;;;;;;;4.60;1.65;;;;;;;;;;5038689;28;20444;-84
2023/02/26 12:08:43;;;;;;;5.18;1.80;;;;;;;;;;5074932;28;20024;-84
2023/02/26 12:11:28;;;;;;;2.78;1.27;;;;;;;;;;5028778;28;20037;-84
2023/02/26 12:14:23;;;;;;;3.45;1.30;;;;;;;;;;5054281;28;20521;-82
2023/02/26 12:17:06;;;;;;;2.60;1.13;;;;;;;;;;4975726;28;20038;-83
2023/02/26 12:19:54;;;;;;;3.45;1.33;;;;;;;;;;5051801;28;20029;-84
2023/02/26 12:22:37;;;;;;;3.33;1.90;;;;;;;;;;5061881;28;20033;-81
2023/02/26 12:25:21;;;;;;;1.85;0.73;;;;;;;;;;5056720;28;20029;-83
2023/02/26 12:28:05;;;;;;;2.63;1.02;;;;;;;;;;5043886;28;20389;-82
2023/02/26 12:30:34;;;;;;;3.53;1.15;;;;;;;;;;5026550;28;20029;-82
2023/02/26 12:33:00;;;;;;;2.20;0.90;;;;;;;;;;5057788;28;20030;-83
2023/02/26 12:35:37;;;;;;;4.43;1.10;;;;;;;;;;5044566;28;20024;-83
2023/02/26 12:38:03;;;;;;;2.25;0.88;;;;;;;;;;5058500;28;20086;-82
2023/02/26 12:40:48;;;;;;;3.38;1.38;;;;;;;;;;5048234;28;20086;-80
2023/02/26 12:43:28;;;;;;;2.17;0.90;;;;;;;;;;5056310;28;20478;-82
2023/02/26 12:46:14;;;;;;;4.18;1.52;;;;;;;;;;5062812;28;20048;-83
2023/02/26 12:48:40;;;;;;;3.67;1.40;;;;;;;;;;5067715;28;20032;-82
2023/02/26 12:51:19;;;;;;;4.97;1.58;;;;;;;;;;5046999;28;20539;-82
2023/02/26 12:54:03;;;;;;;3.65;1.42;;;;;;;;;;5048307;28;20044;-83
2023/02/26 12:56:45;;;;;;;3.15;1.30;;;;;;;;;;5074911;28;20024;-84
2023/02/26 12:59:17;;;;;;;3.78;1.40;;;;;;;;;;5045316;28;20071;-83
2023/02/26 13:02:09;;;;;;;3.65;1.15;;;;;;;;;;5043468;28;20057;-82
2023/02/26 13:04:41;;;;;;;3.33;1.30;;;;;;;;;;5043726;28;20529;-82
2023/02/26 13:07:10;;;;;;;3.67;1.50;;;;;;;;;;5044016;28;20036;-83
2023/02/26 13:10:02;;;;;;;3.17;1.23;;;;;;;;;;5044053;28;20032;-81
2023/02/26 13:12:32;;;;;;;4.18;1.42;;;;;;;;;;5062181;28;20044;-82
2023/02/26 13:15:17;;;;;;;4.75;1.67;;;;;;;;;;5044915;28;20039;-82
2023/02/26 13:17:55;;;;;;;3.67;1.60;;;;;;;;;;5062475;28;20025;-81
2023/02/26 13:20:25;;;;;;;3.95;1.48;;;;;;;;;;5044466;28;20033;-81
2023/02/26 13:22:56;;;;;;;3.70;1.60;;;;;;;;;;5053681;28;20025;-81
2023/02/26 13:25:25;;;;;;;5.32;1.65;;;;;;;;;;5036618;28;20044;-82
2023/02/26 13:27:51;;;;;;;4.30;1.80;;;;;;;;;;5057516;28;20040;-85
2023/02/26 13:30:20;;;;;;;2.85;1.25;;;;;;;;;;5058367;28;20036;-81
2023/02/26 13:32:48;;;;;;;3.10;1.15;;;;;;;;;;5038169;28;20552;-81
2023/02/26 13:35:18;;;;;;;3.00;1.10;;;;;;;;;;5046314;28;20041;-82
2023/02/26 13:37:46;;;;;;;2.47;1.00;;;;;;;;;;5046741;28;20482;-83
2023/02/26 13:40:16;;;;;;;1.83;0.80;;;;;;;;;;5057944;28;20024;-82
2023/02/26 13:42:51;;;;;;;3.97;1.10;;;;;;;;;;5058302;28;20319;-84
2023/02/26 13:45:44;;;;;;;2.42;1.10;;;;;;;;;;5057738;28;20104;-82
2023/02/26 13:48:10;;;;;;;;;;;;;;;;;;5015561;28;20038;-82
2023/02/26 13:50:52;;;;;;;3.17;0.95;;;;;;;;;;5064127;28;20093;-83
2023/02/26 13:53:30;;;;;;;3.55;1.20;;;;;;;;;;5024717;28;20041;-85
2023/02/26 13:56:06;;;;;;;3.30;1.40;;;;;;;;;;5055294;28;20013;-83
2023/02/26 13:58:38;;;;;;;3.03;1.50;;;;;;;;;;5044467;28;20028;-82
2023/02/26 14:01:14;;;;;;;3.05;1.08;;;;;;;;;;5061979;28;20074;-82
2023/02/26 14:03:41;;;;;;;4.63;1.70;;;;;;;;;;5049401;28;20070;-84
2023/02/26 14:06:07;;;;;;;3.90;1.88;;;;;;;;;;5040934;28;20025;-81
2023/02/26 14:08:39;;;;;;;3.45;1.38;;;;;;;;;;5070889;28;20035;-82
2023/02/26 14:11:06;;;;;;;3.65;1.48;;;;;;;;;;5055406;28;20025;-82
2023/02/26 14:13:35;;;;;;;3.63;1.50;;;;;;;;;;5072392;28;20017;-82
2023/02/26 14:16:20;;;;;;;3.05;1.23;;;;;;;;;;5056442;28;20428;-84
2023/02/26 14:18:46;;;;;;;4.00;1.60;;;;;;;;;;5054244;28;20023;-85
2023/02/26 14:21:27;;;;;;;3.15;1.17;;;;;;;;;;5041235;28;20112;-82
2023/02/26 14:24:16;;;;;;;4.20;1.55;;;;;;;;;;5035909;28;20031;-84
2023/02/26 14:26:51;;;;;;;4.55;1.40;;;;;;;;;;5045686;28;20032;-83
2023/02/26 14:29:22;;;;;;;3.60;1.40;;;;;;;;;;5059134;28;20032;-83
2023/02/26 14:31:48;;;;;;;4.05;1.60;;;;;;;;;;5054998;28;20434;-81
2023/02/26 14:34:21;;;;;;;3.60;1.30;;;;;;;;;;5058235;28;20021;-81
2023/02/26 14:36:55;;;;;;;3.58;1.58;;;;;;;;;;5061603;28;20025;-82
2023/02/26 14:39:29;;;;;;;3.83;1.35;;;;;;;;;;5040684;28;20013;-83
2023/02/26 14:42:04;;;;;;;4.28;1.42;;;;;;;;;;5055935;28;20021;-82
2023/02/26 14:44:34;;;;;;;3.13;1.27;;;;;;;;;;5053582;28;20071;-81
2023/02/26 14:47:00;;;;;;;3.67;1.88;;;;;;;;;;5048097;28;20127;-79
2023/02/26 14:49:26;;;;;;;4.70;1.85;;;;;;;;;;5018658;28;20129;-81
2023/02/26 14:52:00;;;;;;;4.30;1.52;;;;;;;;;;5046888;28;20035;-83
2023/02/26 14:54:29;;;;;;;3.08;1.10;;;;;;;;;;5054724;28;20497;-82
2023/02/26 14:57:04;;;;;;;3.40;1.23;;;;;;;;;;5046667;28;20021;-82
2023/02/26 14:59:33;;;;;;;3.72;1.30;;;;;;;;;;5054190;28;20025;-83
2023/02/26 15:02:08;;;;;;;2.72;1.10;;;;;;;;;;5030025;28;20379;-82